Date,TemperatureHighF,TemperatureAvgF,TemperatureLowF,DewpointHighF,DewpointAvgF,DewpointLowF,HumidityHigh,HumidityAvg,HumidityLow,PressureMaxIn,PressureMinIn,WindSpeedMaxMPH,WindSpeedAvgMPH,GustSpeedMaxMPH,PrecipitationSumIn
2013-10-1,55.5,46.4,41.8,42.0,38.4,34.0,95,75,47,30.21,30.02,11,2,20,0.11
2013-10-2,55.1,44.8,35.3,39.0,34.0,27.0,95,70,35,30.31,30.09,9,1,10,0.00
2013-10-3,52.9,43.3,35.8,36.0,31.2,25.0,86,65,38,30.54,30.09,8,2,13,0.00
2013-10-4,56.3,40.1,28.2,34.0,28.9,21.0,91,69,25,30.71,30.54,6,1,9,0.00
2013-10-5,61.8,41.6,28.3,38.0,31.2,26.0,92,70,31,30.66,30.46,6,1,8,0.00
2013-10-6,66.2,44.5,29.3,40.0,32.8,27.0,92,68,26,30.50,30.15,7,1,9,0.00
2013-10-7,67.1,47.0,31.0,39.0,33.3,29.0,94,65,27,30.15,29.93,17,2,23,0.00
2013-10-8,53.7,46.3,37.6,41.0,36.2,33.0,93,69,48,30.10,29.93,8,1,15,0.02
2013-10-9,57.7,43.8,36.4,40.0,36.9,34.0,95,79,45,30.20,29.99,6,1,7,0.01
2013-10-10,51.5,42.4,34.1,39.0,35.2,32.0,93,77,55,30.07,29.97,5,1,9,0.00
2013-10-11,54.5,43.7,35.8,39.0,33.4,29.0,93,70,39,30.22,30.07,9,1,12,0.00
2013-10-12,54.4,41.3,33.0,35.0,31.2,27.0,89,70,35,30.27,30.16,6,1,9,0.00
2013-10-13,56.2,41.4,29.8,36.0,31.8,27.0,91,71,41,30.39,30.26,10,1,10,0.00
2013-10-14,52.2,42.6,33.1,36.0,33.2,29.0,88,71,43,30.57,30.39,5,0,7,0.00
2013-10-15,55.4,37.5,26.5,35.0,29.7,25.0,94,76,42,30.61,30.37,6,1,9,0.00
2013-10-16,52.6,40.3,30.6,37.0,32.5,28.0,92,76,50,30.38,30.27,4,1,6,0.00
2013-10-17,45.4,36.0,29.8,38.0,32.3,28.0,94,87,73,30.48,30.34,2,0,6,0.00
2013-10-18,55.3,37.2,26.1,38.0,31.5,25.0,96,82,48,30.55,30.32,7,1,8,0.01
2013-10-19,58.5,41.8,30.1,39.0,32.8,28.0,94,73,38,30.37,30.16,4,1,10,0.00
2013-10-20,62.6,46.5,34.2,40.0,35.3,31.0,88,67,38,30.29,30.18,7,1,12,0.00
2013-10-21,61.3,43.7,31.0,43.0,36.6,29.0,94,78,49,30.42,30.27,7,1,11,0.00
2013-10-22,61.4,41.7,29.9,43.0,36.4,29.0,96,83,52,30.44,30.27,6,1,8,0.00
2013-10-23,60.9,41.6,30.1,39.0,34.6,29.0,96,79,42,30.40,30.26,6,1,9,0.00
2013-10-24,60.2,42.8,30.2,37.0,33.8,29.0,94,74,40,30.40,30.23,8,1,10,0.01
2013-10-25,60.7,40.1,27.5,38.0,32.8,26.0,94,78,42,30.47,30.32,7,1,10,0.00
2013-10-26,58.5,38.6,26.5,38.0,32.0,25.0,95,79,45,30.55,30.28,7,1,9,0.00
2013-10-27,50.9,38.9,27.4,37.0,30.9,25.0,93,75,51,30.28,29.93,13,2,15,0.01
2013-10-28,41.1,35.3,29.9,25.0,18.1,14.0,79,51,43,30.28,30.17,11,5,23,0.00
2013-10-29,42.7,30.9,22.1,23.0,18.0,15.0,82,60,40,30.27,30.13,13,2,17,0.00
2013-10-30,51.5,35.1,20.2,28.0,22.8,18.0,90,65,38,30.27,30.17,12,2,14,0.00
2013-10-31,46.4,42.0,36.7,38.0,32.8,25.0,84,70,49,30.27,30.14,4,1,10,0.01